sensor_id;sensor_type;location;lat;lon;timestamp;pressure;altitude;pressure_sealevel;temperature;humidity
64076;BME280;50327;51.328;12.324;2023-07-02T00:01:36;52677.34;;;-144.47;100.00
64076;BME280;50327;51.328;12.324;2023-07-02T00:04:01;52679.31;;;-144.47;100.00
64076;BME280;50327;51.328;12.324;2023-07-02T00:06:27;52687.28;;;-144.47;100.00
64076;BME280;50327;51.328;12.324;2023-07-02T00:08:52;52713.09;;;-144.47;100.00
64076;BME280;50327;51.328;12.324;2023-07-02T00:11:17;52685.28;;;-144.47;100.00
64076;BME280;50327;51.328;12.324;2023-07-02T00:13:43;52669.41;;;-144.47;100.00
64076;BME280;50327;51.328;12.324;2023-07-02T00:16:08;52675.34;;;-144.47;100.00
64076;BME280;50327;51.328;12.324;2023-07-02T00:18:33;52705.16;;;-144.47;100.00
64076;BME280;50327;51.328;12.324;2023-07-02T00:21:05;52687.28;;;-144.47;100.00
64076;BME280;50327;51.328;12.324;2023-07-02T00:23:34;52675.34;;;-144.47;100.00
64076;BME280;50327;51.328;12.324;2023-07-02T00:26:00;52679.31;;;-144.47;100.00
64076;BME280;50327;51.328;12.324;2023-07-02T00:28:25;52681.31;;;-144.47;100.00
64076;BME280;50327;51.328;12.324;2023-07-02T00:30:50;52705.16;;;-144.47;100.00
64076;BME280;50327;51.328;12.324;2023-07-02T00:33:16;52709.13;;;-144.47;100.00
64076;BME280;50327;51.328;12.324;2023-07-02T00:35:41;52677.34;;;-144.47;100.00
64076;BME280;50327;51.328;12.324;2023-07-02T00:38:07;52659.47;;;-144.47;100.00
64076;BME280;50327;51.328;12.324;2023-07-02T00:40:32;52683.31;;;-144.47;100.00
64076;BME280;50327;51.328;12.324;2023-07-02T00:42:57;52657.47;;;-144.47;100.00
64076;BME280;50327;51.328;12.324;2023-07-02T00:45:23;52679.31;;;-144.47;100.00
64076;BME280;50327;51.328;12.324;2023-07-02T00:47:53;52697.19;;;-144.47;100.00
64076;BME280;50327;51.328;12.324;2023-07-02T00:50:19;52677.34;;;-144.47;100.00
64076;BME280;50327;51.328;12.324;2023-07-02T00:52:44;52665.44;;;-144.47;100.00
64076;BME280;50327;51.328;12.324;2023-07-02T00:55:10;52687.28;;;-144.47;100.00
64076;BME280;50327;51.328;12.324;2023-07-02T00:57:35;52685.28;;;-144.47;100.00
64076;BME280;50327;51.328;12.324;2023-07-02T01:00:00;52663.44;;;-144.47;100.00
64076;BME280;50327;51.328;12.324;2023-07-02T01:02:26;52681.31;;;-144.47;100.00
64076;BME280;50327;51.328;12.324;2023-07-02T01:04:54;52685.28;;;-144.47;100.00
64076;BME280;50327;51.328;12.324;2023-07-02T01:07:23;52665.44;;;-144.47;100.00
64076;BME280;50327;51.328;12.324;2023-07-02T01:09:49;52711.09;;;-144.47;100.00
64076;BME280;50327;51.328;12.324;2023-07-02T01:12:15;52697.19;;;-144.47;100.00
64076;BME280;50327;51.328;12.324;2023-07-02T01:14:46;52681.31;;;-144.47;100.00
64076;BME280;50327;51.328;12.324;2023-07-02T01:17:13;52677.34;;;-144.47;100.00
64076;BME280;50327;51.328;12.324;2023-07-02T01:22:06;52679.31;;;-144.47;100.00
64076;BME280;50327;51.328;12.324;2023-07-02T01:24:32;52685.28;;;-144.47;100.00
64076;BME280;50327;51.328;12.324;2023-07-02T01:26:58;52701.19;;;-144.47;100.00
64076;BME280;50327;51.328;12.324;2023-07-02T01:29:29;52683.31;;;-144.47;100.00
64076;BME280;50327;51.328;12.324;2023-07-02T01:31:55;52711.09;;;-144.47;100.00
64076;BME280;50327;51.328;12.324;2023-07-02T01:34:20;52695.22;;;-144.47;100.00
64076;BME280;50327;51.328;12.324;2023-07-02T01:36:46;52677.34;;;-144.47;100.00
64076;BME280;50327;51.328;12.324;2023-07-02T01:39:11;52687.28;;;-144.47;100.00
64076;BME280;50327;51.328;12.324;2023-07-02T01:41:42;52687.28;;;-144.47;100.00
64076;BME280;50327;51.328;12.324;2023-07-02T01:44:07;52681.31;;;-144.47;100.00
64076;BME280;50327;51.328;12.324;2023-07-02T01:46:33;52695.22;;;-144.47;100.00
64076;BME280;50327;51.328;12.324;2023-07-02T01:48:58;52673.38;;;-144.47;100.00
64076;BME280;50327;51.328;12.324;2023-07-02T01:51:24;52689.25;;;-144.47;100.00
64076;BME280;50327;51.328;12.324;2023-07-02T01:53:49;52693.22;;;-144.47;100.00
64076;BME280;50327;51.328;12.324;2023-07-02T01:56:14;52691.25;;;-144.47;100.00
64076;BME280;50327;51.328;12.324;2023-07-02T01:58:39;52701.19;;;-144.47;100.00
64076;BME280;50327;51.328;12.324;2023-07-02T02:01:05;52677.34;;;-144.47;100.00
64076;BME280;50327;51.328;12.324;2023-07-02T02:03:30;52665.44;;;-144.47;100.00
64076;BME280;50327;51.328;12.324;2023-07-02T02:05:55;52683.31;;;-144.47;100.00
64076;BME280;50327;51.328;12.324;2023-07-02T02:08:21;52701.19;;;-144.47;100.00
64076;BME280;50327;51.328;12.324;2023-07-02T02:10:46;52657.47;;;-144.47;100.00
64076;BME280;50327;51.328;12.324;2023-07-02T02:13:11;52677.34;;;-144.47;100.00
64076;BME280;50327;51.328;12.324;2023-07-02T02:15:37;52679.31;;;-144.47;100.00
64076;BME280;50327;51.328;12.324;2023-07-02T02:18:02;52721.03;;;-144.47;100.00
64076;BME280;50327;51.328;12.324;2023-07-02T02:20:28;52685.28;;;-144.47;100.00
64076;BME280;50327;51.328;12.324;2023-07-02T02:22:53;52681.31;;;-144.47;100.00
64076;BME280;50327;51.328;12.324;2023-07-02T02:25:18;52687.28;;;-144.47;100.00
64076;BME280;50327;51.328;12.324;2023-07-02T02:27:44;52695.22;;;-144.47;100.00
64076;BME280;50327;51.328;12.324;2023-07-02T02:30:09;52675.34;;;-144.47;100.00
64076;BME280;50327;51.328;12.324;2023-07-02T02:32:35;52687.28;;;-144.47;100.00
64076;BME280;50327;51.328;12.324;2023-07-02T02:35:00;52689.25;;;-144.47;100.00
64076;BME280;50327;51.328;12.324;2023-07-02T02:37:26;52697.19;;;-144.47;100.00
64076;BME280;50327;51.328;12.324;2023-07-02T02:39:51;52665.44;;;-144.47;100.00
64076;BME280;50327;51.328;12.324;2023-07-02T02:42:16;52689.25;;;-144.47;100.00
64076;BME280;50327;51.328;12.324;2023-07-02T02:44:42;52681.31;;;-144.47;100.00
64076;BME280;50327;51.328;12.324;2023-07-02T02:47:07;52687.28;;;-144.47;100.00
64076;BME280;50327;51.328;12.324;2023-07-02T02:49:32;52683.31;;;-144.47;100.00
64076;BME280;50327;51.328;12.324;2023-07-02T02:51:58;52685.28;;;-144.47;100.00
64076;BME280;50327;51.328;12.324;2023-07-02T02:54:23;52699.19;;;-144.47;100.00
64076;BME280;50327;51.328;12.324;2023-07-02T02:56:48;52683.31;;;-144.47;100.00
64076;BME280;50327;51.328;12.324;2023-07-02T02:59:14;52701.19;;;-144.47;100.00
64076;BME280;50327;51.328;12.324;2023-07-02T03:01:39;52705.16;;;-144.47;100.00
64076;BME280;50327;51.328;12.324;2023-07-02T03:04:04;52675.34;;;-144.47;100.00
64076;BME280;50327;51.328;12.324;2023-07-02T03:06:30;52695.22;;;-144.47;100.00
64076;BME280;50327;51.328;12.324;2023-07-02T03:08:56;52691.25;;;-144.47;100.00
64076;BME280;50327;51.328;12.324;2023-07-02T03:11:21;52709.13;;;-144.47;100.00
64076;BME280;50327;51.328;12.324;2023-07-02T03:13:46;52697.19;;;-144.47;100.00
64076;BME280;50327;51.328;12.324;2023-07-02T03:16:12;52681.31;;;-144.47;100.00
64076;BME280;50327;51.328;12.324;2023-07-02T03:18:38;52697.19;;;-144.47;100.00
64076;BME280;50327;51.328;12.324;2023-07-02T03:21:04;52705.16;;;-144.47;100.00
64076;BME280;50327;51.328;12.324;2023-07-02T03:23:29;52675.34;;;-144.47;100.00
64076;BME280;50327;51.328;12.324;2023-07-02T03:25:55;52669.41;;;-144.47;100.00
64076;BME280;50327;51.328;12.324;2023-07-02T03:28:20;52685.28;;;-144.47;100.00
64076;BME280;50327;51.328;12.324;2023-07-02T03:30:45;52721.03;;;-144.47;100.00
64076;BME280;50327;51.328;12.324;2023-07-02T03:33:11;52707.13;;;-144.47;100.00
64076;BME280;50327;51.328;12.324;2023-07-02T03:35:36;52703.16;;;-144.47;100.00
64076;BME280;50327;51.328;12.324;2023-07-02T03:38:04;52705.16;;;-144.47;100.00
64076;BME280;50327;51.328;12.324;2023-07-02T03:40:29;52689.25;;;-144.47;100.00
64076;BME280;50327;51.328;12.324;2023-07-02T03:42:54;52681.31;;;-144.47;100.00
64076;BME280;50327;51.328;12.324;2023-07-02T03:45:20;52705.16;;;-144.47;99.88
64076;BME280;50327;51.328;12.324;2023-07-02T03:47:45;52681.31;;;-144.47;99.90
64076;BME280;50327;51.328;12.324;2023-07-02T03:50:10;52685.28;;;-144.47;99.73
64076;BME280;50327;51.328;12.324;2023-07-02T03:52:36;52685.28;;;-144.47;99.64
64076;BME280;50327;51.328;12.324;2023-07-02T03:55:01;52703.16;;;-144.47;99.03
64076;BME280;50327;51.328;12.324;2023-07-02T03:57:27;52717.06;;;-144.47;98.89
64076;BME280;50327;51.328;12.324;2023-07-02T03:59:53;52689.25;;;-144.47;99.09
64076;BME280;50327;51.328;12.324;2023-07-02T04:02:18;52667.41;;;-144.47;98.32
64076;BME280;50327;51.328;12.324;2023-07-02T04:04:44;52691.25;;;-144.47;98.28
64076;BME280;50327;51.328;12.324;2023-07-02T04:07:09;52701.19;;;-144.47;98.85
64076;BME280;50327;51.328;12.324;2023-07-02T04:09:34;52689.25;;;-144.47;98.66
64076;BME280;50327;51.328;12.324;2023-07-02T04:12:00;52695.22;;;-144.47;98.74
64076;BME280;50327;51.328;12.324;2023-07-02T04:14:26;52711.09;;;-144.47;98.30
64076;BME280;50327;51.328;12.324;2023-07-02T04:16:51;52687.28;;;-144.47;98.58
64076;BME280;50327;51.328;12.324;2023-07-02T04:19:17;52697.19;;;-144.47;98.95
64076;BME280;50327;51.328;12.324;2023-07-02T04:21:42;52681.31;;;-144.47;99.10
64076;BME280;50327;51.328;12.324;2023-07-02T04:24:07;52689.25;;;-144.47;98.85
64076;BME280;50327;51.328;12.324;2023-07-02T04:26:33;52701.19;;;-144.47;99.03
64076;BME280;50327;51.328;12.324;2023-07-02T04:28:58;52703.16;;;-144.47;98.97
64076;BME280;50327;51.328;12.324;2023-07-02T04:31:24;52705.16;;;-144.47;98.49
64076;BME280;50327;51.328;12.324;2023-07-02T04:33:49;52693.22;;;-144.47;98.53
64076;BME280;50327;51.328;12.324;2023-07-02T04:36:15;52715.06;;;-144.47;98.50
64076;BME280;50327;51.328;12.324;2023-07-02T04:38:40;52713.09;;;-144.47;98.46
64076;BME280;50327;51.328;12.324;2023-07-02T04:41:05;52669.41;;;-144.47;98.08
64076;BME280;50327;51.328;12.324;2023-07-02T04:43:32;52709.13;;;-144.47;98.30
64076;BME280;50327;51.328;12.324;2023-07-02T04:45:58;52699.19;;;-144.47;98.13
64076;BME280;50327;51.328;12.324;2023-07-02T04:48:23;52691.25;;;-144.47;98.07
64076;BME280;50327;51.328;12.324;2023-07-02T04:50:49;52695.22;;;-144.47;97.83
64076;BME280;50327;51.328;12.324;2023-07-02T04:53:14;52719.06;;;-144.47;98.14
64076;BME280;50327;51.328;12.324;2023-07-02T04:55:40;52701.19;;;-144.47;98.35
64076;BME280;50327;51.328;12.324;2023-07-02T04:58:05;52705.16;;;-144.47;98.23
64076;BME280;50327;51.328;12.324;2023-07-02T05:00:30;52687.28;;;-144.47;97.53
64076;BME280;50327;51.328;12.324;2023-07-02T05:02:56;52685.28;;;-144.47;97.24
64076;BME280;50327;51.328;12.324;2023-07-02T05:05:21;52721.03;;;-144.47;96.81
64076;BME280;50327;51.328;12.324;2023-07-02T05:07:46;52719.06;;;-144.47;96.99
64076;BME280;50327;51.328;12.324;2023-07-02T05:10:12;52697.19;;;-144.47;96.62
64076;BME280;50327;51.328;12.324;2023-07-02T05:12:37;52711.09;;;-144.47;96.48
64076;BME280;50327;51.328;12.324;2023-07-02T05:15:03;52713.09;;;-144.47;95.54
64076;BME280;50327;51.328;12.324;2023-07-02T05:17:29;52699.19;;;-144.47;95.37
64076;BME280;50327;51.328;12.324;2023-07-02T05:19:54;52689.25;;;-144.47;94.54
64076;BME280;50327;51.328;12.324;2023-07-02T05:22:19;52697.19;;;-144.47;93.49
64076;BME280;50327;51.328;12.324;2023-07-02T05:24:45;52725.00;;;-144.47;92.79
64076;BME280;50327;51.328;12.324;2023-07-02T05:27:11;52691.25;;;-144.47;91.73
64076;BME280;50327;51.328;12.324;2023-07-02T05:29:37;52717.06;;;-144.47;91.85
64076;BME280;50327;51.328;12.324;2023-07-02T05:32:02;52723.03;;;-144.47;91.77
64076;BME280;50327;51.328;12.324;2023-07-02T05:34:27;52691.25;;;-144.47;91.50
64076;BME280;50327;51.328;12.324;2023-07-02T05:36:53;52673.38;;;-144.47;88.99
64076;BME280;50327;51.328;12.324;2023-07-02T05:39:18;52705.16;;;-144.47;89.34
64076;BME280;50327;51.328;12.324;2023-07-02T05:41:44;52685.28;;;-144.47;87.98
64076;BME280;50327;51.328;12.324;2023-07-02T05:44:09;52677.34;;;-144.47;88.00
64076;BME280;50327;51.328;12.324;2023-07-02T05:46:34;52693.22;;;-144.47;87.22
64076;BME280;50327;51.328;12.324;2023-07-02T05:49:00;52703.16;;;-144.47;86.13
64076;BME280;50327;51.328;12.324;2023-07-02T05:51:25;52695.22;;;-144.47;85.18
64076;BME280;50327;51.328;12.324;2023-07-02T05:53:51;52717.06;;;-144.47;84.33
64076;BME280;50327;51.328;12.324;2023-07-02T05:56:17;52705.16;;;-144.47;82.74
64076;BME280;50327;51.328;12.324;2023-07-02T05:58:43;52689.25;;;-144.47;82.92
64076;BME280;50327;51.328;12.324;2023-07-02T06:01:09;52697.19;;;-144.47;81.00
64076;BME280;50327;51.328;12.324;2023-07-02T06:03:34;52687.28;;;-144.47;77.71
64076;BME280;50327;51.328;12.324;2023-07-02T06:05:59;52675.34;;;-144.47;78.18
64076;BME280;50327;51.328;12.324;2023-07-02T06:08:25;52695.22;;;-144.47;77.92
64076;BME280;50327;51.328;12.324;2023-07-02T06:10:50;52705.16;;;-144.47;77.14
64076;BME280;50327;51.328;12.324;2023-07-02T06:13:16;52665.44;;;-144.47;76.17
64076;BME280;50327;51.328;12.324;2023-07-02T06:15:42;52697.19;;;-144.47;74.54
64076;BME280;50327;51.328;12.324;2023-07-02T06:18:07;52699.19;;;-144.47;73.10
64076;BME280;50327;51.328;12.324;2023-07-02T06:20:32;52665.44;;;-144.47;70.49
64076;BME280;50327;51.328;12.324;2023-07-02T06:22:58;52691.25;;;-144.47;67.65
64076;BME280;50327;51.328;12.324;2023-07-02T06:25:24;52693.22;;;-144.47;67.31
64076;BME280;50327;51.328;12.324;2023-07-02T06:27:49;52689.25;;;-144.47;70.00
64076;BME280;50327;51.328;12.324;2023-07-02T06:30:14;52681.31;;;-144.47;68.61
64076;BME280;50327;51.328;12.324;2023-07-02T06:32:40;52679.31;;;-144.47;68.19
64076;BME280;50327;51.328;12.324;2023-07-02T06:35:06;52689.25;;;-144.47;69.97
64076;BME280;50327;51.328;12.324;2023-07-02T06:37:32;52701.19;;;-144.47;72.56
64076;BME280;50327;51.328;12.324;2023-07-02T06:39:57;52671.38;;;-144.47;73.62
64076;BME280;50327;51.328;12.324;2023-07-02T06:42:24;52695.22;;;-144.47;74.07
64076;BME280;50327;51.328;12.324;2023-07-02T06:44:49;52721.03;;;-144.47;74.84
64076;BME280;50327;51.328;12.324;2023-07-02T06:47:15;52701.19;;;-144.47;76.40
64076;BME280;50327;51.328;12.324;2023-07-02T06:49:40;52687.28;;;-144.47;77.09
64076;BME280;50327;51.328;12.324;2023-07-02T06:52:06;52703.16;;;-144.47;76.95
64076;BME280;50327;51.328;12.324;2023-07-02T06:54:31;52717.06;;;-144.47;76.38
64076;BME280;50327;51.328;12.324;2023-07-02T06:56:56;52709.13;;;-144.47;77.85
64076;BME280;50327;51.328;12.324;2023-07-02T06:59:22;52683.31;;;-144.47;77.52
64076;BME280;50327;51.328;12.324;2023-07-02T07:01:49;52711.09;;;-144.47;78.27
64076;BME280;50327;51.328;12.324;2023-07-02T07:04:14;52685.28;;;-144.47;75.58
64076;BME280;50327;51.328;12.324;2023-07-02T07:06:39;52701.19;;;-144.47;75.78
64076;BME280;50327;51.328;12.324;2023-07-02T07:09:05;52699.19;;;-144.47;73.51
64076;BME280;50327;51.328;12.324;2023-07-02T07:11:30;52695.22;;;-144.47;74.51
64076;BME280;50327;51.328;12.324;2023-07-02T07:13:56;52701.19;;;-144.47;73.27
64076;BME280;50327;51.328;12.324;2023-07-02T07:16:22;52707.13;;;-144.47;73.37
64076;BME280;50327;51.328;12.324;2023-07-02T07:18:48;52675.34;;;-144.47;69.84
64076;BME280;50327;51.328;12.324;2023-07-02T07:21:13;52679.31;;;-144.47;67.88
64076;BME280;50327;51.328;12.324;2023-07-02T07:23:39;52685.28;;;-144.47;67.96
64076;BME280;50327;51.328;12.324;2023-07-02T07:26:05;52679.31;;;-144.47;67.89
64076;BME280;50327;51.328;12.324;2023-07-02T07:28:30;52669.41;;;-144.47;65.22
64076;BME280;50327;51.328;12.324;2023-07-02T07:30:56;52695.22;;;-144.47;65.51
64076;BME280;50327;51.328;12.324;2023-07-02T07:33:21;52697.19;;;-144.47;65.74
64076;BME280;50327;51.328;12.324;2023-07-02T07:35:47;52683.31;;;-144.47;66.33
64076;BME280;50327;51.328;12.324;2023-07-02T07:38:15;52693.22;;;-144.47;66.39
64076;BME280;50327;51.328;12.324;2023-07-02T07:40:42;52697.19;;;-144.47;63.76
64076;BME280;50327;51.328;12.324;2023-07-02T07:43:08;52705.16;;;-144.47;59.87
64076;BME280;50327;51.328;12.324;2023-07-02T07:45:33;52687.28;;;-144.47;60.62
64076;BME280;50327;51.328;12.324;2023-07-02T07:47:59;52685.28;;;-144.47;61.27
64076;BME280;50327;51.328;12.324;2023-07-02T07:50:24;52699.19;;;-144.47;58.93
64076;BME280;50327;51.328;12.324;2023-07-02T07:52:49;52685.28;;;-144.47;57.39
64076;BME280;50327;51.328;12.324;2023-07-02T07:55:16;52701.19;;;-144.47;56.67
64076;BME280;50327;51.328;12.324;2023-07-02T07:57:42;52681.31;;;-144.47;54.36
64076;BME280;50327;51.328;12.324;2023-07-02T08:00:07;52683.31;;;-144.47;53.77
64076;BME280;50327;51.328;12.324;2023-07-02T08:02:34;52697.19;;;-144.47;54.72
64076;BME280;50327;51.328;12.324;2023-07-02T08:05:00;52683.31;;;-144.47;55.19
64076;BME280;50327;51.328;12.324;2023-07-02T08:07:26;52677.34;;;-144.47;54.89
64076;BME280;50327;51.328;12.324;2023-07-02T08:09:51;52697.19;;;-144.47;54.55
64076;BME280;50327;51.328;12.324;2023-07-02T08:12:16;52673.38;;;-144.47;54.97
64076;BME280;50327;51.328;12.324;2023-07-02T08:14:42;52677.34;;;-144.47;55.19
64076;BME280;50327;51.328;12.324;2023-07-02T08:17:07;52677.34;;;-144.47;53.78
64076;BME280;50327;51.328;12.324;2023-07-02T08:19:32;52679.31;;;-144.47;53.08
64076;BME280;50327;51.328;12.324;2023-07-02T08:21:58;52669.41;;;-144.47;52.90
64076;BME280;50327;51.328;12.324;2023-07-02T08:24:23;52675.34;;;-144.47;53.97
64076;BME280;50327;51.328;12.324;2023-07-02T08:26:48;52699.19;;;-144.47;54.28
64076;BME280;50327;51.328;12.324;2023-07-02T08:29:15;52705.16;;;-144.47;54.06
64076;BME280;50327;51.328;12.324;2023-07-02T08:31:41;52697.19;;;-144.47;54.05
64076;BME280;50327;51.328;12.324;2023-07-02T08:34:06;52697.19;;;-144.47;53.16
64076;BME280;50327;51.328;12.324;2023-07-02T08:36:32;52695.22;;;-144.47;53.42
64076;BME280;50327;51.328;12.324;2023-07-02T08:38:57;52697.19;;;-144.47;53.22
64076;BME280;50327;51.328;12.324;2023-07-02T08:41:22;52673.38;;;-144.47;52.52
64076;BME280;50327;51.328;12.324;2023-07-02T08:43:49;52675.34;;;-144.47;53.13
64076;BME280;50327;51.328;12.324;2023-07-02T08:46:15;52691.25;;;-144.47;53.29
64076;BME280;50327;51.328;12.324;2023-07-02T08:48:41;52687.28;;;-144.47;52.55
64076;BME280;50327;51.328;12.324;2023-07-02T08:51:07;52707.13;;;-144.47;52.89
64076;BME280;50327;51.328;12.324;2023-07-02T08:53:32;52687.28;;;-144.47;52.81
64076;BME280;50327;51.328;12.324;2023-07-02T08:56:00;52691.25;;;-144.47;50.39
64076;BME280;50327;51.328;12.324;2023-07-02T08:58:25;52689.25;;;-144.47;50.78
64076;BME280;50327;51.328;12.324;2023-07-02T09:01:07;52701.19;;;-144.47;51.72
64076;BME280;50327;51.328;12.324;2023-07-02T09:03:33;52703.16;;;-144.47;53.06
64076;BME280;50327;51.328;12.324;2023-07-02T09:05:58;52701.19;;;-144.47;53.53
64076;BME280;50327;51.328;12.324;2023-07-02T09:08:28;52703.16;;;-144.47;53.09
64076;BME280;50327;51.328;12.324;2023-07-02T09:10:54;52697.19;;;-144.47;53.51
64076;BME280;50327;51.328;12.324;2023-07-02T09:13:29;52715.06;;;-144.47;54.33
64076;BME280;50327;51.328;12.324;2023-07-02T09:15:55;52717.06;;;-144.47;54.83
64076;BME280;50327;51.328;12.324;2023-07-02T09:18:22;52707.13;;;-144.47;55.82
64076;BME280;50327;51.328;12.324;2023-07-02T09:20:54;52697.19;;;-144.47;56.25
64076;BME280;50327;51.328;12.324;2023-07-02T09:23:20;52728.97;;;-144.47;56.21
64076;BME280;50327;51.328;12.324;2023-07-02T09:25:46;52685.28;;;-144.47;56.42
64076;BME280;50327;51.328;12.324;2023-07-02T09:28:17;52699.19;;;-144.47;56.04
64076;BME280;50327;51.328;12.324;2023-07-02T09:30:54;52699.19;;;-144.47;56.40
64076;BME280;50327;51.328;12.324;2023-07-02T09:33:24;52703.16;;;-144.47;55.79
64076;BME280;50327;51.328;12.324;2023-07-02T09:35:49;52709.13;;;-144.47;55.00
64076;BME280;50327;51.328;12.324;2023-07-02T09:38:16;52705.16;;;-144.47;54.96
64076;BME280;50327;51.328;12.324;2023-07-02T09:41:00;52705.16;;;-144.47;54.37
64076;BME280;50327;51.328;12.324;2023-07-02T09:43:26;52728.97;;;-144.47;52.86
64076;BME280;50327;51.328;12.324;2023-07-02T09:45:53;52699.19;;;-144.47;51.40
64076;BME280;50327;51.328;12.324;2023-07-02T09:48:23;52713.09;;;-144.47;50.35
64076;BME280;50327;51.328;12.324;2023-07-02T09:50:50;52709.13;;;-144.47;50.02
64076;BME280;50327;51.328;12.324;2023-07-02T09:53:15;52691.25;;;-144.47;49.22
64076;BME280;50327;51.328;12.324;2023-07-02T09:55:44;52717.06;;;-144.47;50.42
64076;BME280;50327;51.328;12.324;2023-07-02T09:58:10;52685.28;;;-144.47;51.44
64076;BME280;50327;51.328;12.324;2023-07-02T10:00:37;52711.09;;;-144.47;52.17
64076;BME280;50327;51.328;12.324;2023-07-02T10:03:03;52703.16;;;-144.47;52.03
64076;BME280;50327;51.328;12.324;2023-07-02T10:05:30;52709.13;;;-144.47;50.80
64076;BME280;50327;51.328;12.324;2023-07-02T10:08:12;52691.25;;;-144.47;49.50
64076;BME280;50327;51.328;12.324;2023-07-02T10:10:39;52693.22;;;-144.47;50.59
64076;BME280;50327;51.328;12.324;2023-07-02T10:13:04;52715.06;;;-144.47;51.60
64076;BME280;50327;51.328;12.324;2023-07-02T10:15:30;52705.16;;;-144.47;50.20
64076;BME280;50327;51.328;12.324;2023-07-02T10:18:03;52701.19;;;-144.47;49.90
64076;BME280;50327;51.328;12.324;2023-07-02T10:23:02;52693.22;;;-144.47;48.69
64076;BME280;50327;51.328;12.324;2023-07-02T10:25:30;52695.22;;;-144.47;48.67
64076;BME280;50327;51.328;12.324;2023-07-02T10:27:56;52701.19;;;-144.47;48.16
64076;BME280;50327;51.328;12.324;2023-07-02T10:30:36;52711.09;;;-144.47;47.16
64076;BME280;50327;51.328;12.324;2023-07-02T10:33:12;52701.19;;;-144.47;45.21
64076;BME280;50327;51.328;12.324;2023-07-02T10:35:38;52711.09;;;-144.47;45.12
64076;BME280;50327;51.328;12.324;2023-07-02T10:38:05;52701.19;;;-144.47;44.93
64076;BME280;50327;51.328;12.324;2023-07-02T10:40:32;52705.16;;;-144.47;45.30
64076;BME280;50327;51.328;12.324;2023-07-02T10:42:58;52705.16;;;-144.47;45.70
64076;BME280;50327;51.328;12.324;2023-07-02T10:45:32;52717.06;;;-144.47;45.80
64076;BME280;50327;51.328;12.324;2023-07-02T10:47:58;52713.09;;;-144.47;46.77
64076;BME280;50327;51.328;12.324;2023-07-02T10:50:23;52725.00;;;-144.47;46.01
64076;BME280;50327;51.328;12.324;2023-07-02T10:52:49;52721.03;;;-144.47;46.10
64076;BME280;50327;51.328;12.324;2023-07-02T10:55:25;52701.19;;;-144.47;46.81
64076;BME280;50327;51.328;12.324;2023-07-02T10:58:08;52721.03;;;-144.47;46.55
64076;BME280;50327;51.328;12.324;2023-07-02T11:00:50;52709.13;;;-144.47;48.33
64076;BME280;50327;51.328;12.324;2023-07-02T11:03:22;52713.09;;;-144.47;49.84
64076;BME280;50327;51.328;12.324;2023-07-02T11:05:48;52703.16;;;-144.47;49.88
64076;BME280;50327;51.328;12.324;2023-07-02T11:08:14;52697.19;;;-144.47;50.15
64076;BME280;50327;51.328;12.324;2023-07-02T11:10:39;52689.25;;;-144.47;50.59
64076;BME280;50327;51.328;12.324;2023-07-02T11:13:16;52697.19;;;-144.47;50.47
64076;BME280;50327;51.328;12.324;2023-07-02T11:15:43;52687.28;;;-144.47;50.58
64076;BME280;50327;51.328;12.324;2023-07-02T11:18:17;52693.22;;;-144.47;50.36
64076;BME280;50327;51.328;12.324;2023-07-02T11:20:46;52705.16;;;-144.47;50.10
64076;BME280;50327;51.328;12.324;2023-07-02T11:23:21;52707.13;;;-144.47;50.49
64076;BME280;50327;51.328;12.324;2023-07-02T11:26:00;52685.28;;;-144.47;49.23
64076;BME280;50327;51.328;12.324;2023-07-02T11:28:28;52697.19;;;-144.47;49.43
64076;BME280;50327;51.328;12.324;2023-07-02T11:30:53;52715.06;;;-144.47;49.21
64076;BME280;50327;51.328;12.324;2023-07-02T11:33:41;52715.06;;;-144.47;49.50
64076;BME280;50327;51.328;12.324;2023-07-02T11:36:07;52697.19;;;-144.47;48.69
64076;BME280;50327;51.328;12.324;2023-07-02T11:38:34;52687.28;;;-144.47;49.07
64076;BME280;50327;51.328;12.324;2023-07-02T11:41:03;52723.03;;;-144.47;48.60
64076;BME280;50327;51.328;12.324;2023-07-02T11:43:28;52665.44;;;-144.47;47.95
64076;BME280;50327;51.328;12.324;2023-07-02T11:45:54;52689.25;;;-144.47;47.38
64076;BME280;50327;51.328;12.324;2023-07-02T11:48:19;52677.34;;;-144.47;47.34
64076;BME280;50327;51.328;12.324;2023-07-02T11:50:45;52707.13;;;-144.47;47.02
64076;BME280;50327;51.328;12.324;2023-07-02T11:53:10;52762.75;;;-144.47;47.44
64076;BME280;50327;51.328;12.324;2023-07-02T11:55:36;52707.13;;;-144.47;47.54
64076;BME280;50327;51.328;12.324;2023-07-02T11:58:02;52703.16;;;-144.47;46.62
64076;BME280;50327;51.328;12.324;2023-07-02T12:00:27;52717.06;;;-144.47;46.08
64076;BME280;50327;51.328;12.324;2023-07-02T12:02:53;52723.03;;;-144.47;46.20
64076;BME280;50327;51.328;12.324;2023-07-02T12:05:18;52732.94;;;-144.47;46.08
64076;BME280;50327;51.328;12.324;2023-07-02T12:07:43;52736.94;;;-144.47;45.36
64076;BME280;50327;51.328;12.324;2023-07-02T12:10:09;52693.22;;;-144.47;45.46
64076;BME280;50327;51.328;12.324;2023-07-02T12:12:34;52721.03;;;-144.47;45.53
64076;BME280;50327;51.328;12.324;2023-07-02T12:15:00;52717.06;;;-144.47;44.86
64076;BME280;50327;51.328;12.324;2023-07-02T12:17:25;52725.00;;;-144.47;44.68
64076;BME280;50327;51.328;12.324;2023-07-02T12:19:50;52734.94;;;-144.47;44.64
64076;BME280;50327;51.328;12.324;2023-07-02T12:22:16;52719.06;;;-144.47;44.15
64076;BME280;50327;51.328;12.324;2023-07-02T12:24:43;52709.13;;;-144.47;43.09
64076;BME280;50327;51.328;12.324;2023-07-02T12:27:09;52709.13;;;-144.47;43.07
64076;BME280;50327;51.328;12.324;2023-07-02T12:29:36;52709.13;;;-144.47;43.81